sensor_id;sensor_type;location;lat;lon;timestamp;pressure;altitude;pressure_sealevel;temperature;humidity
8160;BME280;27404;52.398;9.646;2023-01-29T00:01:07;102103.00;;;-0.73;100.00
8160;BME280;27404;52.398;9.646;2023-01-29T00:03:33;102098.25;;;-0.69;100.00
8160;BME280;27404;52.398;9.646;2023-01-29T00:05:59;102092.25;;;-0.73;100.00
8160;BME280;27404;52.398;9.646;2023-01-29T00:08:25;102081.75;;;-0.65;100.00
8160;BME280;27404;52.398;9.646;2023-01-29T00:10:51;102088.81;;;-0.64;100.00
8160;BME280;27404;52.398;9.646;2023-01-29T00:13:17;102088.94;;;-0.65;100.00
8160;BME280;27404;52.398;9.646;2023-01-29T00:15:52;102087.09;;;-0.53;100.00
8160;BME280;27404;52.398;9.646;2023-01-29T00:18:17;102089.03;;;-0.55;100.00
8160;BME280;27404;52.398;9.646;2023-01-29T00:20:43;102089.03;;;-0.55;100.00
8160;BME280;27404;52.398;9.646;2023-01-29T00:23:08;102077.06;;;-0.51;100.00
8160;BME280;27404;52.398;9.646;2023-01-29T00:25:34;102070.72;;;-0.50;100.00
8160;BME280;27404;52.398;9.646;2023-01-29T00:27:59;102069.00;;;-0.51;100.00
8160;BME280;27404;52.398;9.646;2023-01-29T00:30:24;102067.78;;;-0.47;100.00
8160;BME280;27404;52.398;9.646;2023-01-29T00:32:50;102071.44;;;-0.48;100.00
8160;BME280;27404;52.398;9.646;2023-01-29T00:35:16;102070.97;;;-0.53;100.00
8160;BME280;27404;52.398;9.646;2023-01-29T00:37:41;102071.44;;;-0.48;100.00
8160;BME280;27404;52.398;9.646;2023-01-29T00:40:08;102064.13;;;-0.46;100.00
8160;BME280;27404;52.398;9.646;2023-01-29T00:42:34;102069.50;;;-0.46;100.00
8160;BME280;27404;52.398;9.646;2023-01-29T00:45:18;102075.19;;;-0.39;100.00
8160;BME280;27404;52.398;9.646;2023-01-29T00:47:43;102083.88;;;-0.36;100.00
8160;BME280;27404;52.398;9.646;2023-01-29T00:50:10;102078.50;;;-0.36;100.00
8160;BME280;27404;52.398;9.646;2023-01-29T00:52:36;102075.53;;;-0.33;100.00
8160;BME280;27404;52.398;9.646;2023-01-29T00:55:04;102085.47;;;-0.45;100.00
8160;BME280;27404;52.398;9.646;2023-01-29T00:57:31;102074.97;;;-0.48;100.00
8160;BME280;27404;52.398;9.646;2023-01-29T00:59:57;102079.75;;;-0.51;100.00
8160;BME280;27404;52.398;9.646;2023-01-29T01:02:23;102081.72;;;-0.53;100.00
8160;BME280;27404;52.398;9.646;2023-01-29T01:05:09;102076.81;;;-0.48;100.00
8160;BME280;27404;52.398;9.646;2023-01-29T01:07:39;102060.69;;;-0.48;100.00
8160;BME280;27404;52.398;9.646;2023-01-29T01:10:05;102054.69;;;-0.40;100.00
8160;BME280;27404;52.398;9.646;2023-01-29T01:12:51;102045.88;;;-0.42;100.00
8160;BME280;27404;52.398;9.646;2023-01-29T01:15:17;102060.06;;;-0.40;100.00
8160;BME280;27404;52.398;9.646;2023-01-29T01:17:43;102047.28;;;-0.27;100.00
8160;BME280;27404;52.398;9.646;2023-01-29T01:20:12;102055.88;;;-0.33;100.00
8160;BME280;27404;52.398;9.646;2023-01-29T01:22:37;102048.78;;;-0.34;100.00
8160;BME280;27404;52.398;9.646;2023-01-29T01:25:03;102036.47;;;-0.37;100.00
8160;BME280;27404;52.398;9.646;2023-01-29T01:27:28;102041.25;;;-0.40;100.00
8160;BME280;27404;52.398;9.646;2023-01-29T01:29:54;102045.16;;;-0.45;100.00
8160;BME280;27404;52.398;9.646;2023-01-29T01:32:19;102041.00;;;-0.37;100.00
8160;BME280;27404;52.398;9.646;2023-01-29T01:34:45;102038.91;;;-0.34;100.00
8160;BME280;27404;52.398;9.646;2023-01-29T01:37:10;102028.84;;;-0.32;100.00
8160;BME280;27404;52.398;9.646;2023-01-29T01:39:36;102019.69;;;-0.29;100.00
8160;BME280;27404;52.398;9.646;2023-01-29T01:42:02;102025.59;;;-0.35;100.00
8160;BME280;27404;52.398;9.646;2023-01-29T01:44:50;102022.84;;;-0.45;100.00
8160;BME280;27404;52.398;9.646;2023-01-29T01:47:16;102018.44;;;-0.46;100.00
8160;BME280;27404;52.398;9.646;2023-01-29T01:49:45;102021.91;;;-0.55;100.00
8160;BME280;27404;52.398;9.646;2023-01-29T01:52:12;102016.56;;;-0.67;100.00
8160;BME280;27404;52.398;9.646;2023-01-29T01:54:40;102021.97;;;-0.78;100.00
8160;BME280;27404;52.398;9.646;2023-01-29T01:57:10;102025.66;;;-0.91;100.00
8160;BME280;27404;52.398;9.646;2023-01-29T01:59:44;102011.97;;;-0.87;100.00
8160;BME280;27404;52.398;9.646;2023-01-29T02:02:12;102011.94;;;-0.76;100.00
8160;BME280;27404;52.398;9.646;2023-01-29T02:04:57;102017.34;;;-0.87;100.00
8160;BME280;27404;52.398;9.646;2023-01-29T02:07:42;102021.66;;;-0.96;100.00
8160;BME280;27404;52.398;9.646;2023-01-29T02:10:31;102020.31;;;-1.02;100.00
8160;BME280;27404;52.398;9.646;2023-01-29T02:13:05;102024.00;;;-1.03;100.00
8160;BME280;27404;52.398;9.646;2023-01-29T02:15:31;102026.53;;;-1.01;100.00
8160;BME280;27404;52.398;9.646;2023-01-29T02:17:57;102028.50;;;-1.03;100.00
8160;BME280;27404;52.398;9.646;2023-01-29T02:20:23;102040.81;;;-1.01;100.00
8160;BME280;27404;52.398;9.646;2023-01-29T02:28:31;102051.66;;;-0.91;100.00
8160;BME280;27404;52.398;9.646;2023-01-29T02:31:03;102057.84;;;-0.91;100.00
8160;BME280;27404;52.398;9.646;2023-01-29T02:33:47;102055.44;;;-0.94;100.00
8160;BME280;27404;52.398;9.646;2023-01-29T02:36:44;102069.94;;;-0.85;100.00
8160;BME280;27404;52.398;9.646;2023-01-29T02:39:19;102067.38;;;-0.86;100.00
8160;BME280;27404;52.398;9.646;2023-01-29T02:42:20;102061.25;;;-0.77;100.00
8160;BME280;27404;52.398;9.646;2023-01-29T02:52:25;102065.03;;;-0.68;100.00
8160;BME280;27404;52.398;9.646;2023-01-29T02:55:11;102061.88;;;-0.73;100.00
8160;BME280;27404;52.398;9.646;2023-01-29T02:57:42;102068.97;;;-0.72;100.00
8160;BME280;27404;52.398;9.646;2023-01-29T03:05:32;102048.94;;;-0.68;100.00
8160;BME280;27404;52.398;9.646;2023-01-29T03:08:05;102041.84;;;-0.69;100.00
8160;BME280;27404;52.398;9.646;2023-01-29T03:11:05;102039.88;;;-0.67;100.00
8160;BME280;27404;52.398;9.646;2023-01-29T03:16:25;102035.59;;;-0.70;100.00
8160;BME280;27404;52.398;9.646;2023-01-29T03:19:00;102030.50;;;-0.73;100.00
8160;BME280;27404;52.398;9.646;2023-01-29T03:21:37;102022.09;;;-0.80;100.00
8160;BME280;27404;52.398;9.646;2023-01-29T03:24:45;102023.81;;;-0.79;100.00
8160;BME280;27404;52.398;9.646;2023-01-29T03:27:35;102036.38;;;-0.79;100.00
8160;BME280;27404;52.398;9.646;2023-01-29T03:30:23;102029.03;;;-0.77;100.00
8160;BME280;27404;52.398;9.646;2023-01-29T03:33:09;102021.47;;;-0.83;100.00
8160;BME280;27404;52.398;9.646;2023-01-29T03:35:57;102019.41;;;-0.80;100.00
8160;BME280;27404;52.398;9.646;2023-01-29T03:38:26;102025.63;;;-0.79;100.00
8160;BME280;27404;52.398;9.646;2023-01-29T03:41:03;102027.06;;;-0.75;100.00
8160;BME280;27404;52.398;9.646;2023-01-29T03:46:17;102013.78;;;-0.77;100.00
8160;BME280;27404;52.398;9.646;2023-01-29T03:49:36;102018.69;;;-0.82;100.00
8160;BME280;27404;52.398;9.646;2023-01-29T03:52:18;102006.81;;;-0.79;100.00
8160;BME280;27404;52.398;9.646;2023-01-29T03:54:55;102000.97;;;-0.84;100.00
8160;BME280;27404;52.398;9.646;2023-01-29T03:57:38;101999.63;;;-0.79;100.00
8160;BME280;27404;52.398;9.646;2023-01-29T04:02:56;101999.28;;;-0.85;100.00
8160;BME280;27404;52.398;9.646;2023-01-29T04:05:32;101996.34;;;-0.82;100.00
8160;BME280;27404;52.398;9.646;2023-01-29T04:08:05;101983.63;;;-0.80;100.00
8160;BME280;27404;52.398;9.646;2023-01-29T04:10:32;101980.38;;;-0.84;100.00
8160;BME280;27404;52.398;9.646;2023-01-29T04:13:05;101984.16;;;-0.86;100.00
8160;BME280;27404;52.398;9.646;2023-01-29T04:15:37;101978.28;;;-0.80;100.00
8160;BME280;27404;52.398;9.646;2023-01-29T04:18:04;101970.47;;;-0.83;100.00
8160;BME280;27404;52.398;9.646;2023-01-29T04:20:29;101971.19;;;-0.81;100.00
8160;BME280;27404;52.398;9.646;2023-01-29T04:22:55;101958.03;;;-0.84;100.00
8160;BME280;27404;52.398;9.646;2023-01-29T04:25:28;101954.84;;;-0.78;100.00
8160;BME280;27404;52.398;9.646;2023-01-29T04:30:52;101943.97;;;-0.77;100.00
8160;BME280;27404;52.398;9.646;2023-01-29T04:38:46;101927.50;;;-0.83;100.00
8160;BME280;27404;52.398;9.646;2023-01-29T04:43:54;101929.00;;;-0.91;100.00
8160;BME280;27404;52.398;9.646;2023-01-29T04:51:57;101938.00;;;-0.80;100.00
8160;BME280;27404;52.398;9.646;2023-01-29T05:02:38;101919.66;;;-0.75;100.00
8160;BME280;27404;52.398;9.646;2023-01-29T05:05:06;101913.78;;;-0.69;100.00
8160;BME280;27404;52.398;9.646;2023-01-29T05:07:34;101906.44;;;-0.67;100.00
8160;BME280;27404;52.398;9.646;2023-01-29T05:10:03;101906.00;;;-0.72;100.00
8160;BME280;27404;52.398;9.646;2023-01-29T05:12:30;101913.69;;;-0.67;100.00
8160;BME280;27404;52.398;9.646;2023-01-29T05:14:57;101917.59;;;-0.71;100.00
8160;BME280;27404;52.398;9.646;2023-01-29T05:17:25;101916.34;;;-0.67;100.00
8160;BME280;27404;52.398;9.646;2023-01-29T05:19:50;101912.22;;;-0.71;100.00
8160;BME280;27404;52.398;9.646;2023-01-29T05:22:17;101905.47;;;-0.66;100.00
8160;BME280;27404;52.398;9.646;2023-01-29T05:24:47;101898.25;;;-0.65;100.00
8160;BME280;27404;52.398;9.646;2023-01-29T05:27:22;101903.63;;;-0.65;100.00
8160;BME280;27404;52.398;9.646;2023-01-29T05:30:08;101910.44;;;-0.61;100.00
8160;BME280;27404;52.398;9.646;2023-01-29T05:32:34;101913.59;;;-0.56;100.00
8160;BME280;27404;52.398;9.646;2023-01-29T05:35:00;101926.81;;;-0.64;100.00
8160;BME280;27404;52.398;9.646;2023-01-29T05:37:25;101922.16;;;-0.62;100.00
8160;BME280;27404;52.398;9.646;2023-01-29T05:39:50;101923.75;;;-0.60;100.00
8160;BME280;27404;52.398;9.646;2023-01-29T05:42:16;101917.91;;;-0.65;100.00
8160;BME280;27404;52.398;9.646;2023-01-29T05:44:41;101919.81;;;-0.55;100.00
8160;BME280;27404;52.398;9.646;2023-01-29T05:47:07;101921.38;;;-0.53;100.00
8160;BME280;27404;52.398;9.646;2023-01-29T05:49:32;101919.69;;;-0.54;100.00
8160;BME280;27404;52.398;9.646;2023-01-29T05:51:58;101918.13;;;-0.56;100.00
8160;BME280;27404;52.398;9.646;2023-01-29T05:54:23;101911.31;;;-0.61;100.00
8160;BME280;27404;52.398;9.646;2023-01-29T05:56:49;101932.66;;;-0.59;100.00
8160;BME280;27404;52.398;9.646;2023-01-29T05:59:15;101933.00;;;-0.52;100.00
8160;BME280;27404;52.398;9.646;2023-01-29T06:01:40;101936.41;;;-0.50;100.00
8160;BME280;27404;52.398;9.646;2023-01-29T06:04:06;101940.44;;;-0.56;100.00
8160;BME280;27404;52.398;9.646;2023-01-29T06:06:31;101936.06;;;-0.57;100.00
8160;BME280;27404;52.398;9.646;2023-01-29T06:08:57;101936.25;;;-0.49;100.00
8160;BME280;27404;52.398;9.646;2023-01-29T06:11:23;101944.19;;;-0.47;100.00
8160;BME280;27404;52.398;9.646;2023-01-29T06:13:48;101941.78;;;-0.50;100.00
8160;BME280;27404;52.398;9.646;2023-01-29T06:16:14;101942.75;;;-0.51;100.00
8160;BME280;27404;52.398;9.646;2023-01-29T06:18:40;101924.22;;;-0.54;100.00
8160;BME280;27404;52.398;9.646;2023-01-29T06:21:07;101915.19;;;-0.53;100.00
8160;BME280;27404;52.398;9.646;2023-01-29T06:23:34;101911.88;;;-0.57;100.00
8160;BME280;27404;52.398;9.646;2023-01-29T06:26:04;101938.63;;;-0.55;100.00
8160;BME280;27404;52.398;9.646;2023-01-29T06:28:30;101938.63;;;-0.55;100.00
8160;BME280;27404;52.398;9.646;2023-01-29T06:31:01;101946.03;;;-0.48;100.00
8160;BME280;27404;52.398;9.646;2023-01-29T06:33:27;101938.22;;;-0.51;100.00
8160;BME280;27404;52.398;9.646;2023-01-29T06:36:00;101939.94;;;-0.50;100.00
8160;BME280;27404;52.398;9.646;2023-01-29T06:38:26;101950.09;;;-0.53;100.00
8160;BME280;27404;52.398;9.646;2023-01-29T06:40:52;101938.47;;;-0.54;100.00
8160;BME280;27404;52.398;9.646;2023-01-29T06:43:18;101924.78;;;-0.51;100.00
8160;BME280;27404;52.398;9.646;2023-01-29T06:45:55;101926.50;;;-0.50;100.00
8160;BME280;27404;52.398;9.646;2023-01-29T06:48:22;101938.56;;;-0.44;100.00
8160;BME280;27404;52.398;9.646;2023-01-29T06:50:48;101929.38;;;-0.41;100.00
8160;BME280;27404;52.398;9.646;2023-01-29T06:53:14;101925.44;;;-0.37;100.00
8160;BME280;27404;52.398;9.646;2023-01-29T06:55:40;101924.28;;;-0.45;100.00
8160;BME280;27404;52.398;9.646;2023-01-29T06:58:08;101943.59;;;-0.51;100.00
8160;BME280;27404;52.398;9.646;2023-01-29T07:00:34;101966.41;;;-0.45;100.00
8160;BME280;27404;52.398;9.646;2023-01-29T07:03:00;101973.41;;;-0.33;100.00
8160;BME280;27404;52.398;9.646;2023-01-29T07:05:25;101969.06;;;-0.34;100.00
8160;BME280;27404;52.398;9.646;2023-01-29T07:07:50;101975.25;;;-0.33;100.00
8160;BME280;27404;52.398;9.646;2023-01-29T07:10:16;101976.38;;;-0.36;100.00
8160;BME280;27404;52.398;9.646;2023-01-29T07:12:42;101979.25;;;-0.27;100.00
8160;BME280;27404;52.398;9.646;2023-01-29T07:15:07;101977.38;;;-0.37;100.00
8160;BME280;27404;52.398;9.646;2023-01-29T07:17:33;101967.06;;;-0.32;100.00
8160;BME280;27404;52.398;9.646;2023-01-29T07:19:58;101963.28;;;-0.29;100.00
8160;BME280;27404;52.398;9.646;2023-01-29T07:22:24;101969.22;;;-0.25;100.00
8160;BME280;27404;52.398;9.646;2023-01-29T07:24:49;101956.75;;;-0.26;100.00
8160;BME280;27404;52.398;9.646;2023-01-29T07:27:15;101946.44;;;-0.31;100.00
8160;BME280;27404;52.398;9.646;2023-01-29T07:29:40;101945.97;;;-0.36;100.00
8160;BME280;27404;52.398;9.646;2023-01-29T07:32:05;101935.53;;;-0.30;100.00
8160;BME280;27404;52.398;9.646;2023-01-29T07:34:32;101924.72;;;-0.39;100.00
8160;BME280;27404;52.398;9.646;2023-01-29T07:36:58;101918.97;;;-0.35;100.00
8160;BME280;27404;52.398;9.646;2023-01-29T07:39:23;101936.25;;;-0.27;100.00
8160;BME280;27404;52.398;9.646;2023-01-29T07:41:49;101931.84;;;-0.28;100.00
8160;BME280;27404;52.398;9.646;2023-01-29T07:44:14;101935.69;;;-0.31;100.00
8160;BME280;27404;52.398;9.646;2023-01-29T07:46:40;101929.00;;;-0.37;100.00
8160;BME280;27404;52.398;9.646;2023-01-29T07:49:05;101934.38;;;-0.37;100.00
8160;BME280;27404;52.398;9.646;2023-01-29T07:51:30;101935.78;;;-0.33;100.00
8160;BME280;27404;52.398;9.646;2023-01-29T07:53:56;101912.22;;;-0.29;100.00
8160;BME280;27404;52.398;9.646;2023-01-29T07:56:21;101901.22;;;-0.26;100.00
8160;BME280;27404;52.398;9.646;2023-01-29T07:58:47;101888.00;;;-0.39;100.00
8160;BME280;27404;52.398;9.646;2023-01-29T08:01:12;101889.94;;;-0.41;100.00
8160;BME280;27404;52.398;9.646;2023-01-29T08:03:38;101888.25;;;-0.42;100.00
8160;BME280;27404;52.398;9.646;2023-01-29T08:06:03;101894.66;;;-0.33;100.00
8160;BME280;27404;52.398;9.646;2023-01-29T08:08:29;101901.53;;;-0.40;100.00
8160;BME280;27404;52.398;9.646;2023-01-29T08:10:55;101895.72;;;-0.46;100.00
8160;BME280;27404;52.398;9.646;2023-01-29T08:13:20;101904.63;;;-0.45;100.00
8160;BME280;27404;52.398;9.646;2023-01-29T08:15:46;101903.25;;;-0.39;100.00
8160;BME280;27404;52.398;9.646;2023-01-29T08:18:13;101889.94;;;-0.41;100.00
8160;BME280;27404;52.398;9.646;2023-01-29T08:20:39;101897.50;;;-0.35;100.00
8160;BME280;27404;52.398;9.646;2023-01-29T08:23:06;101903.69;;;-0.34;100.00
8160;BME280;27404;52.398;9.646;2023-01-29T08:25:33;101903.56;;;-0.33;100.00
8160;BME280;27404;52.398;9.646;2023-01-29T08:28:00;101898.19;;;-0.33;100.00
8160;BME280;27404;52.398;9.646;2023-01-29T08:30:30;101903.28;;;-0.30;100.00
8160;BME280;27404;52.398;9.646;2023-01-29T08:32:56;101898.63;;;-0.27;100.00
8160;BME280;27404;52.398;9.646;2023-01-29T08:35:22;101905.72;;;-0.26;100.00
8160;BME280;27404;52.398;9.646;2023-01-29T08:37:57;101900.34;;;-0.26;100.00
8160;BME280;27404;52.398;9.646;2023-01-29T08:40:24;101902.75;;;-0.23;100.00
8160;BME280;27404;52.398;9.646;2023-01-29T08:42:50;101895.94;;;-0.27;100.00
8160;BME280;27404;52.398;9.646;2023-01-29T08:45:15;101892.91;;;-0.13;100.00
8160;BME280;27404;52.398;9.646;2023-01-29T08:47:48;101882.16;;;-0.13;100.00
8160;BME280;27404;52.398;9.646;2023-01-29T08:50:15;101877.91;;;-0.16;100.00
8160;BME280;27404;52.398;9.646;2023-01-29T08:52:41;101877.78;;;-0.14;100.00
8160;BME280;27404;52.398;9.646;2023-01-29T08:55:07;101871.03;;;-0.08;100.00
8160;BME280;27404;52.398;9.646;2023-01-29T08:57:33;101876.13;;;-0.05;100.00
8160;BME280;27404;52.398;9.646;2023-01-29T08:59:58;101872.50;;;0.06;100.00
8160;BME280;27404;52.398;9.646;2023-01-29T09:02:24;101877.72;;;0.07;100.00
8160;BME280;27404;52.398;9.646;2023-01-29T09:04:49;101869.00;;;0.15;100.00
8160;BME280;27404;52.398;9.646;2023-01-29T09:07:15;101883.88;;;0.19;100.00
8160;BME280;27404;52.398;9.646;2023-01-29T09:09:40;101888.56;;;0.27;100.00
8160;BME280;27404;52.398;9.646;2023-01-29T09:12:06;101880.09;;;0.32;100.00
8160;BME280;27404;52.398;9.646;2023-01-29T09:14:31;101875.69;;;0.31;100.00
8160;BME280;27404;52.398;9.646;2023-01-29T09:16:57;101864.94;;;0.31;100.00
8160;BME280;27404;52.398;9.646;2023-01-29T09:19:22;101869.75;;;0.37;100.00
8160;BME280;27404;52.398;9.646;2023-01-29T09:21:47;101860.94;;;0.35;100.00
8160;BME280;27404;52.398;9.646;2023-01-29T09:24:14;101851.63;;;0.39;100.00
8160;BME280;27404;52.398;9.646;2023-01-29T09:26:39;101844.84;;;0.44;100.00
8160;BME280;27404;52.398;9.646;2023-01-29T09:29:05;101837.94;;;0.52;100.00
8160;BME280;27404;52.398;9.646;2023-01-29T09:31:31;101840.19;;;0.56;100.00
8160;BME280;27404;52.398;9.646;2023-01-29T09:33:56;101832.13;;;0.56;100.00
8160;BME280;27404;52.398;9.646;2023-01-29T09:36:22;101850.28;;;0.64;100.00
8160;BME280;27404;52.398;9.646;2023-01-29T09:38:47;101852.81;;;0.76;100.00
8160;BME280;27404;52.398;9.646;2023-01-29T09:43:54;101834.69;;;0.87;100.00
8160;BME280;27404;52.398;9.646;2023-01-29T09:46:29;101831.88;;;0.99;100.00
8160;BME280;27404;52.398;9.646;2023-01-29T09:49:02;101834.25;;;0.92;100.00
8160;BME280;27404;52.398;9.646;2023-01-29T09:51:34;101834.25;;;1.02;100.00
8160;BME280;27404;52.398;9.646;2023-01-29T09:54:26;101849.41;;;0.93;100.00
8160;BME280;27404;52.398;9.646;2023-01-29T09:56:55;101839.63;;;1.02;100.00
8160;BME280;27404;52.398;9.646;2023-01-29T09:59:22;101828.28;;;1.08;100.00
8160;BME280;27404;52.398;9.646;2023-01-29T10:01:54;101826.31;;;1.00;100.00
8160;BME280;27404;52.398;9.646;2023-01-29T10:10:12;101815.28;;;0.94;100.00
8160;BME280;27404;52.398;9.646;2023-01-29T10:26:43;101819.22;;;1.09;100.00
8160;BME280;27404;52.398;9.646;2023-01-29T10:29:15;101831.97;;;1.17;100.00
8160;BME280;27404;52.398;9.646;2023-01-29T10:31:43;101825.88;;;1.15;100.00
8160;BME280;27404;52.398;9.646;2023-01-29T10:34:14;101836.22;;;1.20;100.00
8160;BME280;27404;52.398;9.646;2023-01-29T10:36:48;101830.00;;;1.19;100.00
8160;BME280;27404;52.398;9.646;2023-01-29T10:39:19;101824.72;;;1.17;100.00
8160;BME280;27404;52.398;9.646;2023-01-29T10:49:40;101810.41;;;1.27;100.00
8160;BME280;27404;52.398;9.646;2023-01-29T10:52:34;101797.97;;;1.16;100.00
8160;BME280;27404;52.398;9.646;2023-01-29T10:55:14;101796.09;;;1.16;100.00
8160;BME280;27404;52.398;9.646;2023-01-29T11:00:21;101780.09;;;1.15;100.00
8160;BME280;27404;52.398;9.646;2023-01-29T11:02:49;101783.06;;;1.22;100.00
8160;BME280;27404;52.398;9.646;2023-01-29T11:05:36;101776.25;;;1.17;100.00
8160;BME280;27404;52.398;9.646;2023-01-29T11:08:15;101767.88;;;1.21;100.00
8160;BME280;27404;52.398;9.646;2023-01-29T11:13:16;101770.16;;;1.15;100.00
8160;BME280;27404;52.398;9.646;2023-01-29T11:15:42;101760.53;;;1.13;100.00
8160;BME280;27404;52.398;9.646;2023-01-29T11:18:10;101750.91;;;1.10;100.00
8160;BME280;27404;52.398;9.646;2023-01-29T11:20:39;101759.25;;;1.07;100.00
8160;BME280;27404;52.398;9.646;2023-01-29T11:23:17;101748.94;;;1.02;100.00
8160;BME280;27404;52.398;9.646;2023-01-29T11:25:51;101739.31;;;0.90;100.00
8160;BME280;27404;52.398;9.646;2023-01-29T11:28:37;101741.31;;;0.98;100.00
8160;BME280;27404;52.398;9.646;2023-01-29T11:31:21;101739.41;;;1.08;100.00
8160;BME280;27404;52.398;9.646;2023-01-29T11:33:49;101735.94;;;0.98;100.00
8160;BME280;27404;52.398;9.646;2023-01-29T11:36:30;101738.72;;;1.06;100.00
8160;BME280;27404;52.398;9.646;2023-01-29T11:39:22;101725.81;;;1.00;100.00
8160;BME280;27404;52.398;9.646;2023-01-29T11:42:01;101715.47;;;1.05;100.00
8160;BME280;27404;52.398;9.646;2023-01-29T11:47:20;101708.38;;;1.14;100.00
8160;BME280;27404;52.398;9.646;2023-01-29T11:49:51;101713.47;;;1.17;100.00
8160;BME280;27404;52.398;9.646;2023-01-29T11:52:22;101708.09;;;1.07;100.00
8160;BME280;27404;52.398;9.646;2023-01-29T11:54:53;101697.31;;;1.07;100.00
8160;BME280;27404;52.398;9.646;2023-01-29T11:57:25;101688.13;;;1.10;100.00
8160;BME280;27404;52.398;9.646;2023-01-29T11:59:53;101689.06;;;1.18;100.00
8160;BME280;27404;52.398;9.646;2023-01-29T12:02:44;101689.06;;;1.18;100.00
8160;BME280;27404;52.398;9.646;2023-01-29T12:05:26;101687.78;;;1.23;100.00
8160;BME280;27404;52.398;9.646;2023-01-29T12:07:54;101678.22;;;1.38;100.00
8160;BME280;27404;52.398;9.646;2023-01-29T12:10:36;101667.19;;;1.31;100.00
8160;BME280;27404;52.398;9.646;2023-01-29T12:15:33;101670.56;;;1.33;100.00
8160;BME280;27404;52.398;9.646;2023-01-29T12:18:34;101664.34;;;1.33;100.00
8160;BME280;27404;52.398;9.646;2023-01-29T12:21:03;101657.09;;;1.33;100.00
8160;BME280;27404;52.398;9.646;2023-01-29T12:31:41;101653.06;;;1.20;100.00
8160;BME280;27404;52.398;9.646;2023-01-29T12:37:01;101651.66;;;1.15;100.00
8160;BME280;27404;52.398;9.646;2023-01-29T12:39:28;101648.94;;;1.25;100.00
8160;BME280;27404;52.398;9.646;2023-01-29T12:42:01;101649.13;;;1.14;100.00
8160;BME280;27404;52.398;9.646;2023-01-29T12:47:02;101642.88;;;1.13;100.00
8160;BME280;27404;52.398;9.646;2023-01-29T12:49:36;101638.94;;;1.08;100.00
8160;BME280;27404;52.398;9.646;2023-01-29T12:52:10;101639.47;;;1.11;100.00
8160;BME280;27404;52.398;9.646;2023-01-29T12:54:42;101642.06;;;1.03;100.00
8160;BME280;27404;52.398;9.646;2023-01-29T13:03:01;101628.22;;;0.98;100.00
8160;BME280;27404;52.398;9.646;2023-01-29T13:05:46;101623.38;;;1.01;100.00
8160;BME280;27404;52.398;9.646;2023-01-29T13:08:26;101608.16;;;1.10;100.00
8160;BME280;27404;52.398;9.646;2023-01-29T13:10:56;101613.16;;;1.05;100.00
8160;BME280;27404;52.398;9.646;2023-01-29T13:13:33;101613.00;;;1.07;100.00
8160;BME280;27404;52.398;9.646;2023-01-29T13:16:03;101603.47;;;1.12;100.00
8160;BME280;27404;52.398;9.646;2023-01-29T13:18:46;101593.41;;;1.14;100.00
8160;BME280;27404;52.398;9.646;2023-01-29T13:21:21;101585.50;;;1.13;100.00
8160;BME280;27404;52.398;9.646;2023-01-29T13:23:53;101585.28;;;1.24;100.00
8160;BME280;27404;52.398;9.646;2023-01-29T13:26:21;101580.31;;;1.29;100.00
8160;BME280;27404;52.398;9.646;2023-01-29T13:28:48;101575.97;;;1.37;100.00
8160;BME280;27404;52.398;9.646;2023-01-29T13:31:22;101584.75;;;1.39;100.00
8160;BME280;27404;52.398;9.646;2023-01-29T13:34:15;101582.38;;;1.36;100.00
8160;BME280;27404;52.398;9.646;2023-01-29T13:36:52;101575.84;;;1.38;100.00
8160;BME280;27404;52.398;9.646;2023-01-29T13:39:33;101575.53;;;1.23;100.00
8160;BME280;27404;52.398;9.646;2023-01-29T13:42:14;101572.25;;;1.20;100.00
8160;BME280;27404;52.398;9.646;2023-01-29T13:44:46;101551.56;;;1.20;100.00
8160;BME280;27404;52.398;9.646;2023-01-29T13:47:21;101555.28;;;1.19;100.00
8160;BME280;27404;52.398;9.646;2023-01-29T13:50:02;101551.63;;;1.10;100.00
8160;BME280;27404;52.398;9.646;2023-01-29T13:52:39;101541.63;;;1.21;100.00
8160;BME280;27404;52.398;9.646;2023-01-29T14:07:59;101527.84;;;1.06;100.00
8160;BME280;27404;52.398;9.646;2023-01-29T14:10:30;101525.69;;;1.09;100.00
8160;BME280;27404;52.398;9.646;2023-01-29T14:18:32;101516.22;;;1.05;100.00
8160;BME280;27404;52.398;9.646;2023-01-29T14:21:03;101509.53;;;1.09;100.00
8160;BME280;27404;52.398;9.646;2023-01-29T14:24:10;101514.38;;;1.06;100.00
8160;BME280;27404;52.398;9.646;2023-01-29T14:26:42;101505.75;;;1.02;100.00
8160;BME280;27404;52.398;9.646;2023-01-29T14:34:31;101511.50;;;0.89;100.00
8160;BME280;27404;52.398;9.646;2023-01-29T14:37:01;101502.41;;;0.90;100.00
8160;BME280;27404;52.398;9.646;2023-01-29T14:39:45;101506.59;;;0.74;100.00
8160;BME280;27404;52.398;9.646;2023-01-29T14:42:32;101500.91;;;0.78;100.00
8160;BME280;27404;52.398;9.646;2023-01-29T14:55:38;101494.09;;;0.55;100.00
8160;BME280;27404;52.398;9.646;2023-01-29T14:58:05;101496.94;;;0.54;100.00
8160;BME280;27404;52.398;9.646;2023-01-29T15:00:36;101497.25;;;0.51;100.00
8160;BME280;27404;52.398;9.646;2023-01-29T15:03:12;101495.53;;;0.50;100.00
8160;BME280;27404;52.398;9.646;2023-01-29T15:05:39;101493.56;;;0.52;100.00
8160;BME280;27404;52.398;9.646;2023-01-29T15:10:56;101483.91;;;0.49;100.00
8160;BME280;27404;52.398;9.646;2023-01-29T15:13:54;101492.16;;;0.48;100.00
8160;BME280;27404;52.398;9.646;2023-01-29T15:16:37;101495.84;;;0.47;100.00
8160;BME280;27404;52.398;9.646;2023-01-29T15:19:21;101490.06;;;0.41;100.00
8160;BME280;27404;52.398;9.646;2023-01-29T15:22:13;101492.69;;;0.51;100.00
8160;BME280;27404;52.398;9.646;2023-01-29T15:24:40;101489.59;;;0.46;100.00
8160;BME280;27404;52.398;9.646;2023-01-29T15:27:10;101487.47;;;0.50;100.00
8160;BME280;27404;52.398;9.646;2023-01-29T15:29:37;101480.53;;;0.47;100.00
8160;BME280;27404;52.398;9.646;2023-01-29T15:32:02;101480.81;;;0.44;100.00
8160;BME280;27404;52.398;9.646;2023-01-29T15:34:28;101469.66;;;0.39;100.00
8160;BME280;27404;52.398;9.646;2023-01-29T15:36:54;101477.53;;;0.50;100.00
8160;BME280;27404;52.398;9.646;2023-01-29T15:39:22;101457.19;;;0.48;100.00
8160;BME280;27404;52.398;9.646;2023-01-29T15:41:49;101456.63;;;0.44;100.00